Vistas del Oceano, Puerto Rico
Current Conditions -  °F | °C
As of 3:18 AM on Saturday 29 Nov 2014 (Local Time) from TJNR Reporting Station
Light Rain Light Rain  
Wind Chill: 77°   Ceiling: 3600
Heat Index: 78°   Visibility: 3mi
Dew Point: 74°   Wind: 0mph
Humidity: 90%   Direction: NA
Pressure: 29.93"   Gusts: NA
Location:  18.2022°N, 65.86°W
Report Text: TJNR 290718Z AUTO 00000KT 3SM -RA BR SCT015 BKN036 BKN120 25/23 A2993 RMK AO2 P0015 T02500233 $
Loading
Personal Weather Stations






























Interactive Weather Map New forecast layout! Learn more

10-Day Weather Forecast

Advertisements
Track Severe Weather on mobile